| time (UTC) | temp F | wind direction | speed knots | gust knots | rain 1hr in | rain 24hr in | rain mn in | humidity % | barometer mb |
| 20260503184533 | 69 | 180 | 0.0 | 0.0 | 0.00 | 0.00 | 0.00 | 30 | 999.3 |
| 20260503184032 | 69 | 180 | 0.0 | 0.0 | 0.00 | 0.00 | 0.00 | 30 | 999.2 |
| 20260503183532 | 70 | 180 | 0.0 | 0.0 | 0.00 | 0.00 | 0.00 | 30 | 999.3 |
| 20260503183032 | 70 | 180 | 0.0 | 0.0 | 0.00 | 0.00 | 0.00 | 30 | 999.2 |
| 20260503182531 | 70 | 180 | 0.0 | 0.0 | 0.00 | 0.00 | 0.00 | 29 | 999.2 |
| 20260503182035 | 71 | 180 | 0.0 | 0.0 | 0.00 | 0.00 | 0.00 | 29 | 999.2 |
| 20260503181531 | 71 | 180 | 0.0 | 0.0 | 0.00 | 0.00 | 0.00 | 29 | 999.1 |
| 20260503181031 | 72 | 180 | 0.0 | 0.0 | 0.00 | 0.00 | 0.00 | 28 | 999.1 |
| 20260503180530 | 73 | 180 | 0.0 | 0.0 | 0.00 | 0.00 | 0.00 | 28 | 999.0 |
| 20260503180030 | 73 | 180 | 0.0 | 0.0 | 0.00 | 0.00 | 0.00 | 28 | 999.0 |
| 20260503175530 | 74 | 180 | 0.0 | 0.0 | 0.00 | 0.00 | 0.00 | 26 | 999.0 |
| 20260503175029 | 75 | 180 | 0.0 | 0.0 | 0.00 | 0.00 | 0.00 | 27 | 999.0 |
| 20260503174529 | 75 | 180 | 0.0 | 0.0 | 0.00 | 0.00 | 0.00 | 25 | 998.9 |
| 20260503174029 | 76 | 180 | 0.0 | 0.0 | 0.00 | 0.00 | 0.00 | 25 | 998.9 |
| 20260503173529 | 77 | 180 | 0.0 | 0.0 | 0.00 | 0.00 | 0.00 | 24 | 998.9 |
| 20260503173028 | 79 | 180 | 0.0 | 0.0 | 0.00 | 0.00 | 0.00 | 23 | 998.8 |
| 20260503172528 | 84 | 180 | 0.0 | 0.0 | 0.00 | 0.00 | 0.00 | 22 | 998.8 |
| 20260503172029 | 86 | 180 | 0.0 | 0.0 | 0.00 | 0.00 | 0.00 | 21 | 998.9 |
| 20260503171527 | 86 | 180 | 0.0 | 0.0 | 0.00 | 0.00 | 0.00 | 20 | 998.7 |
| 20260503171027 | 87 | 202 | 0.0 | 0.0 | 0.00 | 0.00 | 0.00 | 20 | 998.9 |
| 20260503170527 | 87 | 202 | 0.0 | 0.0 | 0.00 | 0.00 | 0.00 | 20 | 999.1 |
| 20260503150520 | 80 | 45 | 0.9 | 0.9 | 0.00 | 0.00 | 0.00 | 23 | 999.5 |
| 20260503131013 | 79 | 157 | 0.0 | 0.0 | 0.00 | 0.00 | 0.00 | 22 | 1000.6 |
| 20260503130513 | 79 | 180 | 0.0 | 0.0 | 0.00 | 0.00 | 0.00 | 23 | 1000.7 |
| 20260503120133 | 78 | 90 | 0.0 | 0.0 | 0.00 | 0.00 | 0.00 | 24 | 1001.2 |
| 20260503110630 | 77 | 22 | 0.0 | 0.0 | 0.00 | 0.00 | 0.00 | 25 | 1001.9 |
| 20260503110129 | 77 | 202 | 0.0 | 4.3 | 0.00 | 0.00 | 0.00 | 25 | 1002.1 |
| 20260503100126 | 75 | 202 | 1.7 | 2.6 | 0.00 | 0.00 | 0.00 | 27 | 1002.5 |
| 20260503090122 | 74 | 22 | 0.0 | 0.9 | 0.00 | 0.00 | 0.00 | 32 | 1003.0 |
| 20260503081620 | 73 | 202 | 0.0 | 0.0 | 0.00 | 0.00 | 0.00 | 34 | 1003.3 |
| 20260503081119 | 72 | 180 | 0.0 | 0.0 | 0.00 | 0.00 | 0.00 | 34 | 1003.3 |
| 20260503080619 | 72 | 112 | 0.0 | 0.0 | 0.00 | 0.00 | 0.00 | 34 | 1003.3 |
| 20260503080119 | 72 | 202 | 0.0 | 0.0 | 0.00 | 0.00 | 0.00 | 34 | 1003.3 |
| 20260503072618 | 70 | 180 | 0.0 | 0.0 | 0.00 | 0.00 | 0.00 | 36 | 1003.6 |
| 20260503072117 | 70 | 180 | 0.0 | 0.0 | 0.00 | 0.00 | 0.00 | 36 | 1003.6 |
| 20260503071616 | 70 | 202 | 0.0 | 2.6 | 0.00 | 0.00 | 0.00 | 36 | 1003.6 |
| 20260503071117 | 69 | 135 | 2.6 | 2.6 | 0.00 | 0.00 | 0.00 | 36 | 1003.6 |
| 20260503070616 | 69 | 90 | 0.0 | 1.7 | 0.00 | 0.00 | 0.00 | 37 | 1003.7 |
| 20260503070115 | 69 | 135 | 1.7 | 1.7 | 0.00 | 0.00 | 0.00 | 37 | 1003.6 |
| 20260503060112 | 74 | 112 | 0.0 | 0.0 | 0.00 | 0.00 | 0.00 | 34 | 1003.7 |
| 20260503055111 | 73 | 112 | 0.0 | 0.0 | 0.00 | 0.00 | 0.00 | 37 | 1003.8 |
| 20260503054611 | 73 | 112 | 0.0 | 0.0 | 0.00 | 0.00 | 0.00 | 37 | 1003.7 |
| 20260503054111 | 72 | 90 | 0.0 | 0.0 | 0.00 | 0.00 | 0.00 | 38 | 1003.9 |
| 20260503053610 | 71 | 90 | 0.0 | 0.0 | 0.00 | 0.00 | 0.00 | 38 | 1004.0 |
| 20260503053110 | 71 | 90 | 0.0 | 0.0 | 0.00 | 0.00 | 0.00 | 38 | 1003.7 |
| 20260503052611 | 71 | 90 | 0.0 | 0.0 | 0.00 | 0.00 | 0.00 | 38 | 1004.0 |
| 20260503052252 | 72 | 67 | 0.0 | 0.0 | 0.00 | 0.00 | 0.00 | 38 | 1004.1 |
| 20260503052109 | 71 | 90 | 0.0 | 0.0 | 0.00 | 0.00 | 0.00 | 38 | 1004.0 |
| 20260503051609 | 72 | 67 | 0.0 | 0.0 | 0.00 | 0.00 | 0.00 | 38 | 1004.1 |
| 20260503051109 | 72 | 67 | 0.0 | 0.0 | 0.00 | 0.00 | 0.00 | 38 | 1004.1 |
| 20260503050609 | 72 | 67 | 0.0 | 0.0 | 0.00 | 0.00 | 0.00 | 38 | 1004.0 |
| 20260503050108 | 73 | 67 | 0.0 | 0.0 | 0.00 | 0.00 | 0.00 | 39 | 1004.0 |
| 20260503045608 | 73 | 67 | 0.0 | 0.0 | 0.00 | 0.00 | 0.00 | 39 | 1004.0 |
| 20260503045108 | 72 | 67 | 0.0 | 0.0 | 0.00 | 0.00 | 0.00 | 41 | 1004.1 |
| 20260503044608 | 71 | 67 | 0.0 | 0.0 | 0.00 | 0.00 | 0.00 | 42 | 1004.2 |
| 20260503044107 | 71 | 67 | 0.0 | 0.0 | 0.00 | 0.00 | 0.00 | 43 | 1004.2 |
| 20260503043607 | 69 | 67 | 0.0 | 0.0 | 0.00 | 0.00 | 0.00 | 44 | 1004.1 |
| 20260503043109 | 68 | 67 | 0.0 | 0.0 | 0.00 | 0.00 | 0.00 | 45 | 1004.1 |
| 20260503042606 | 68 | 67 | 0.0 | 0.0 | 0.00 | 0.00 | 0.00 | 46 | 1004.0 |
| 20260503042106 | 68 | 67 | 0.0 | 0.0 | 0.00 | 0.00 | 0.00 | 46 | 1004.0 |
| 20260503041607 | 67 | 67 | 0.0 | 0.0 | 0.00 | 0.00 | 0.00 | 48 | 1004.0 |
| 20260503041105 | 66 | 67 | 0.0 | 0.0 | 0.00 | 0.00 | 0.00 | 50 | 1004.1 |
| 20260503040605 | 64 | 67 | 0.0 | 0.0 | 0.00 | 0.00 | 0.00 | 52 | 1003.9 |
| 20260503040106 | 63 | 67 | 0.0 | 0.0 | 0.00 | 0.00 | 0.00 | 54 | 1004.0 |
| 20260503035605 | 61 | 67 | 0.0 | 0.0 | 0.00 | 0.00 | 0.00 | 56 | 1004.1 |
| 20260503035104 | 60 | 67 | 0.0 | 0.0 | 0.00 | 0.00 | 0.00 | 58 | 1004.0 |
| 20260503034604 | 57 | 67 | 0.0 | 0.0 | 0.00 | 0.00 | 0.00 | 61 | 1003.9 |
| 20260503034104 | 55 | 67 | 0.0 | 0.0 | 0.00 | 0.00 | 0.00 | 63 | 1004.0 |
| 20260503033603 | 53 | 67 | 0.0 | 0.0 | 0.00 | 0.00 | 0.00 | 64 | 1004.0 |
| 20260503033103 | 52 | 67 | 0.0 | 0.0 | 0.00 | 0.00 | 0.00 | 62 | 1004.0 |
| 20260503032603 | 51 | 67 | 0.0 | 0.0 | 0.00 | 0.00 | 0.00 | 62 | 1003.9 |
| 20260503032102 | 51 | 67 | 0.0 | 0.0 | 0.00 | 0.00 | 0.00 | 61 | 1003.9 |
| 20260503031602 | 51 | 67 | 0.0 | 0.0 | 0.00 | 0.00 | 0.00 | 61 | 1003.9 |
| 20260503031102 | 51 | 67 | 0.0 | 0.0 | 0.00 | 0.00 | 0.00 | 60 | 1004.0 |
| 20260503030602 | 51 | 67 | 0.0 | 0.0 | 0.00 | 0.00 | 0.00 | 60 | 1003.9 |
| 20260503025601 | 51 | 67 | 0.0 | 0.0 | 0.00 | 0.00 | 0.00 | 59 | 1004.0 |
| 20260503025101 | 51 | 67 | 0.0 | 0.0 | 0.00 | 0.00 | 0.00 | 59 | 1004.0 |
| 20260503024600 | 51 | 67 | 0.0 | 0.0 | 0.00 | 0.00 | 0.00 | 59 | 1004.0 |
| 20260503024100 | 52 | 67 | 0.0 | 0.0 | 0.00 | 0.00 | 0.00 | 59 | 1004.1 |
| 20260503023600 | 52 | 67 | 0.0 | 0.0 | 0.00 | 0.00 | 0.00 | 58 | 1004.1 |
| 20260503023059 | 52 | 67 | 0.0 | 0.0 | 0.00 | 0.00 | 0.00 | 58 | 1004.0 |
| 20260503022559 | 52 | 67 | 0.0 | 0.0 | 0.00 | 0.00 | 0.00 | 58 | 1004.0 |
| 20260503022059 | 53 | 67 | 0.0 | 0.0 | 0.00 | 0.00 | 0.00 | 58 | 1004.1 |
| 20260503021559 | 53 | 67 | 0.0 | 0.0 | 0.00 | 0.00 | 0.00 | 58 | 1004.0 |
| 20260503021058 | 52 | 67 | 0.0 | 0.0 | 0.00 | 0.00 | 0.00 | 58 | 1004.1 |
| 20260503020558 | 52 | 67 | 0.0 | 0.0 | 0.00 | 0.00 | 0.00 | 58 | 1004.0 |
| 20260503020058 | 52 | 67 | 0.0 | 0.0 | 0.00 | 0.00 | 0.00 | 57 | 1004.0 |
| 20260503015557 | 53 | 67 | 0.0 | 0.0 | 0.00 | 0.00 | 0.00 | 57 | 1004.0 |
| 20260503015057 | 53 | 67 | 0.0 | 0.0 | 0.00 | 0.00 | 0.00 | 57 | 1004.0 |
| 20260503014557 | 53 | 67 | 0.0 | 0.0 | 0.00 | 0.00 | 0.00 | 57 | 1004.0 |
| 20260503014057 | 53 | 67 | 0.0 | 0.0 | 0.00 | 0.00 | 0.00 | 57 | 1004.0 |
| 20260503013556 | 53 | 67 | 0.0 | 0.0 | 0.00 | 0.00 | 0.00 | 57 | 1004.0 |
| 20260503013056 | 53 | 67 | 0.0 | 0.0 | 0.00 | 0.00 | 0.00 | 56 | 1004.1 |
| 20260503012556 | 53 | 67 | 0.0 | 0.0 | 0.00 | 0.00 | 0.00 | 56 | 1004.1 |
| 20260503012055 | 53 | 67 | 0.0 | 0.0 | 0.00 | 0.00 | 0.00 | 56 | 1004.1 |
| 20260503011555 | 53 | 67 | 0.0 | 0.0 | 0.00 | 0.00 | 0.00 | 55 | 1004.0 |
| 20260503011055 | 53 | 67 | 0.0 | 0.0 | 0.00 | 0.00 | 0.00 | 55 | 1004.0 |
| 20260503010555 | 53 | 67 | 0.0 | 0.0 | 0.00 | 0.00 | 0.00 | 55 | 1004.0 |
| 20260503010054 | 53 | 67 | 0.0 | 0.0 | 0.00 | 0.00 | 0.00 | 55 | 1004.2 |
| 20260503005554 | 54 | 67 | 0.0 | 0.0 | 0.00 | 0.00 | 0.00 | 54 | 1004.1 |
| 20260503005054 | 54 | 67 | 0.0 | 0.0 | 0.00 | 0.00 | 0.00 | 54 | 1004.0 |
| 20260503004553 | 54 | 67 | 0.0 | 0.0 | 0.00 | 0.00 | 0.00 | 53 | 1004.0 |
| 20260503004053 | 54 | 67 | 0.0 | 0.0 | 0.00 | 0.00 | 0.00 | 53 | 1004.0 |
| 20260503001103 | 55 | 67 | 0.0 | 0.0 | 0.00 | 0.00 | 0.00 | 52 | 1003.9 |
| 20260503000603 | 55 | 67 | 0.0 | 0.0 | 0.00 | 0.00 | 0.00 | 52 | 1004.1 |
| 20260502235602 | 56 | 67 | 0.0 | 0.0 | 0.00 | 0.00 | 0.00 | 52 | 1004.2 |
| 20260502235102 | 56 | 67 | 0.0 | 0.0 | 0.00 | 0.00 | 0.00 | 51 | 1004.1 |
| 20260502234601 | 56 | 67 | 0.0 | 0.0 | 0.00 | 0.00 | 0.00 | 51 | 1004.2 |
| 20260502234101 | 56 | 67 | 0.0 | 0.0 | 0.00 | 0.00 | 0.00 | 51 | 1004.2 |
| 20260502233601 | 56 | 67 | 0.0 | 0.0 | 0.00 | 0.00 | 0.00 | 51 | 1004.3 |
| 20260502233101 | 56 | 67 | 0.0 | 0.0 | 0.00 | 0.00 | 0.00 | 51 | 1004.3 |
| 20260502232603 | 55 | 67 | 0.0 | 0.0 | 0.00 | 0.00 | 0.00 | 51 | 1004.4 |
| 20260502232100 | 55 | 45 | 0.0 | 0.0 | 0.00 | 0.00 | 0.00 | 51 | 1004.3 |
| 20260502231600 | 55 | 45 | 0.0 | 0.0 | 0.00 | 0.00 | 0.00 | 51 | 1004.4 |
| 20260502231101 | 55 | 45 | 0.0 | 0.0 | 0.00 | 0.00 | 0.00 | 50 | 1004.4 |
| 20260502230559 | 55 | 45 | 0.0 | 0.0 | 0.00 | 0.00 | 0.00 | 50 | 1004.3 |
| 20260502230059 | 55 | 45 | 0.0 | 0.0 | 0.00 | 0.00 | 0.00 | 49 | 1004.3 |
| 20260502225559 | 55 | 45 | 0.0 | 0.0 | 0.00 | 0.00 | 0.00 | 49 | 1004.3 |
| 20260502225058 | 56 | 45 | 0.0 | 0.0 | 0.00 | 0.00 | 0.00 | 49 | 1004.5 |
| 20260502224558 | 56 | 45 | 0.0 | 0.0 | 0.00 | 0.00 | 0.00 | 48 | 1004.4 |
| 20260502224058 | 56 | 45 | 0.0 | 0.0 | 0.00 | 0.00 | 0.00 | 48 | 1004.4 |
| 20260502223557 | 56 | 45 | 0.0 | 0.0 | 0.00 | 0.00 | 0.00 | 48 | 1004.3 |
| 20260502223057 | 57 | 45 | 0.0 | 0.0 | 0.00 | 0.00 | 0.00 | 47 | 1004.2 |
| 20260502222557 | 57 | 45 | 0.0 | 0.0 | 0.00 | 0.00 | 0.00 | 47 | 1004.4 |
| 20260502222057 | 57 | 45 | 0.0 | 0.0 | 0.00 | 0.00 | 0.00 | 47 | 1004.5 |
| 20260502221556 | 57 | 45 | 0.0 | 0.0 | 0.00 | 0.00 | 0.00 | 47 | 1004.5 |
| 20260502221056 | 57 | 45 | 0.0 | 0.0 | 0.00 | 0.00 | 0.00 | 47 | 1004.6 |
| 20260502220556 | 57 | 45 | 0.0 | 0.0 | 0.00 | 0.00 | 0.00 | 47 | 1004.6 |
| 20260502220056 | 57 | 45 | 0.0 | 0.0 | 0.00 | 0.00 | 0.00 | 46 | 1004.5 |
| 20260502215555 | 58 | 45 | 0.0 | 0.0 | 0.00 | 0.00 | 0.00 | 46 | 1004.5 |
| 20260502215055 | 58 | 45 | 0.0 | 0.0 | 0.00 | 0.00 | 0.00 | 46 | 1004.5 |
| 20260502214554 | 58 | 45 | 0.0 | 0.0 | 0.00 | 0.00 | 0.00 | 46 | 1004.5 |
| 20260502214054 | 58 | 45 | 0.0 | 0.0 | 0.00 | 0.00 | 0.00 | 46 | 1004.6 |
| 20260502213554 | 58 | 45 | 0.0 | 0.0 | 0.00 | 0.00 | 0.00 | 46 | 1004.5 |
| 20260502213054 | 58 | 45 | 0.0 | 0.0 | 0.00 | 0.00 | 0.00 | 46 | 1004.5 |
| 20260502212553 | 58 | 45 | 0.0 | 0.0 | 0.00 | 0.00 | 0.00 | 45 | 1004.6 |
| 20260502212053 | 58 | 45 | 0.0 | 0.0 | 0.00 | 0.00 | 0.00 | 45 | 1004.6 |
| 20260502211553 | 58 | 45 | 0.0 | 0.0 | 0.00 | 0.00 | 0.00 | 45 | 1004.7 |
| 20260502211052 | 58 | 45 | 0.0 | 0.0 | 0.00 | 0.00 | 0.00 | 45 | 1004.5 |
| 20260502210552 | 58 | 45 | 0.0 | 0.0 | 0.00 | 0.00 | 0.00 | 44 | 1004.6 |
| 20260502210052 | 58 | 45 | 0.0 | 0.0 | 0.00 | 0.00 | 0.00 | 44 | 1004.6 |
| 20260502205552 | 59 | 45 | 0.0 | 0.0 | 0.00 | 0.00 | 0.00 | 43 | 1004.6 |
| 20260502205051 | 59 | 45 | 0.0 | 0.0 | 0.00 | 0.00 | 0.00 | 43 | 1004.7 |
| 20260502204551 | 59 | 45 | 0.0 | 0.0 | 0.00 | 0.00 | 0.00 | 42 | 1004.7 |
| 20260502204051 | 59 | 45 | 0.0 | 0.0 | 0.00 | 0.00 | 0.00 | 42 | 1004.7 |
| 20260502203550 | 60 | 45 | 0.0 | 0.0 | 0.00 | 0.00 | 0.00 | 42 | 1004.7 |
| 20260502203050 | 60 | 45 | 0.0 | 0.0 | 0.00 | 0.00 | 0.00 | 41 | 1004.7 |
| 20260502202550 | 60 | 45 | 0.0 | 0.0 | 0.00 | 0.00 | 0.00 | 41 | 1004.7 |
| 20260502202049 | 61 | 45 | 0.0 | 0.0 | 0.00 | 0.00 | 0.00 | 40 | 1004.7 |
| 20260502201549 | 61 | 45 | 0.0 | 0.0 | 0.00 | 0.00 | 0.00 | 40 | 1004.6 |
| 20260502201049 | 61 | 45 | 0.0 | 0.0 | 0.00 | 0.00 | 0.00 | 40 | 1004.6 |
| 20260502200549 | 61 | 45 | 0.0 | 0.0 | 0.00 | 0.00 | 0.00 | 39 | 1004.6 |
| 20260502200048 | 62 | 45 | 0.0 | 0.0 | 0.00 | 0.00 | 0.00 | 39 | 1004.6 |
| 20260502195548 | 62 | 45 | 0.0 | 0.0 | 0.00 | 0.00 | 0.00 | 39 | 1004.7 |
| 20260502195048 | 62 | 45 | 0.0 | 0.0 | 0.00 | 0.00 | 0.00 | 38 | 1004.6 |
| 20260502194547 | 62 | 45 | 0.0 | 0.0 | 0.00 | 0.00 | 0.00 | 38 | 1004.7 |
| 20260502194047 | 62 | 45 | 0.0 | 0.0 | 0.00 | 0.00 | 0.00 | 38 | 1004.7 |
| 20260502193547 | 63 | 45 | 0.0 | 0.0 | 0.00 | 0.00 | 0.00 | 37 | 1004.8 |
| 20260502193047 | 63 | 45 | 0.0 | 0.0 | 0.00 | 0.00 | 0.00 | 37 | 1004.9 |
| 20260502192546 | 63 | 45 | 0.0 | 0.0 | 0.00 | 0.00 | 0.00 | 37 | 1005.0 |
| 20260502192046 | 64 | 45 | 0.0 | 0.0 | 0.00 | 0.00 | 0.00 | 36 | 1005.0 |
| 20260502191630 | 64 | 45 | 0.0 | 0.0 | 0.00 | 0.00 | 0.00 | 36 | 1005.1 |
| 20260502191546 | 64 | 45 | 0.0 | 0.0 | 0.00 | 0.00 | 0.00 | 36 | 1005.1 |
| 20260502191046 | 64 | 45 | 0.0 | 0.0 | 0.00 | 0.00 | 0.00 | 36 | 1005.0 |
| 20260502190545 | 64 | 45 | 0.0 | 0.0 | 0.00 | 0.00 | 0.00 | 35 | 1005.0 |
| 20260502190045 | 65 | 45 | 0.0 | 0.0 | 0.00 | 0.00 | 0.00 | 34 | 1005.0 |
| 20260502185545 | 65 | 45 | 0.0 | 0.0 | 0.00 | 0.00 | 0.00 | 34 | 1005.0 |
| 20260502185045 | 66 | 45 | 0.0 | 0.0 | 0.00 | 0.00 | 0.00 | 33 | 1004.9 |